Time;durP1;ratioP1;P1;durP2;ratioP2;P2;SDS_P1;SDS_P2;PMS_P1;PMS_P2;Temp;Humidity;BMP_temperature;BMP_pressure;BME280_temperature;BME280_humidity;BME280_pressure;Samples;Min_cycle;Max_cycle;Signal;HPM_P1;HPM_P2
2023/10/28 00:02:44;;;;;;;0.10;0.10;;;;;;;;;;4993909;28;20046;-77
2023/10/28 00:05:31;;;;;;;0.10;0.10;;;;;;;;;;4992705;28;20022;-77
2023/10/28 00:08:16;;;;;;;0.10;0.10;;;;;;;;;;4993756;28;20030;-77
2023/10/28 00:11:04;;;;;;;0.10;0.10;;;;;;;;;;4992815;28;20034;-77
2023/10/28 00:13:50;;;;;;;0.20;0.20;;;;;;;;;;4993036;28;20034;-78
2023/10/28 00:16:36;;;;;;;0.10;0.10;;;;;;;;;;4982719;28;20041;-77
2023/10/28 00:19:22;;;;;;;0.20;0.20;;;;;;;;;;4994464;28;20133;-77
2023/10/28 00:22:07;;;;;;;0.10;0.10;;;;;;;;;;4989465;28;20577;-77
2023/10/28 00:24:53;;;;;;;0.10;0.10;;;;;;;;;;4977363;28;20030;-77
2023/10/28 00:27:43;;;;;;;0.10;0.10;;;;;;;;;;4976536;28;20050;-77
2023/10/28 00:30:28;;;;;;;0.10;0.10;;;;;;;;;;4976555;28;20105;-77
2023/10/28 00:33:15;;;;;;;0.10;0.10;;;;;;;;;;4978217;28;20050;-77
2023/10/28 00:36:05;;;;;;;0.10;0.10;;;;;;;;;;4978938;28;20118;-77
2023/10/28 00:38:51;;;;;;;0.10;0.10;;;;;;;;;;4977194;28;20128;-76
2023/10/28 00:41:37;;;;;;;0.10;0.10;;;;;;;;;;4971403;28;20160;-76
2023/10/28 00:44:23;;;;;;;0.10;0.10;;;;;;;;;;4962274;28;20045;-77
2023/10/28 00:47:12;;;;;;;0.13;0.13;;;;;;;;;;4976993;28;20061;-77
2023/10/28 00:49:58;;;;;;;0.10;0.10;;;;;;;;;;4976486;28;20041;-76
2023/10/28 00:52:47;;;;;;;0.10;0.10;;;;;;;;;;4961878;28;20493;-77
2023/10/28 00:55:33;;;;;;;0.10;0.10;;;;;;;;;;4962708;28;20200;-77
2023/10/28 00:58:20;;;;;;;0.10;0.10;;;;;;;;;;4976779;28;20034;-76
2023/10/28 01:01:08;;;;;;;0.10;0.10;;;;;;;;;;4977828;28;20129;-77
2023/10/28 01:03:54;;;;;;;0.10;0.10;;;;;;;;;;4977192;28;20168;-77
2023/10/28 01:06:39;;;;;;;0.10;0.10;;;;;;;;;;4977363;28;20038;-77
2023/10/28 01:09:25;;;;;;;0.10;0.10;;;;;;;;;;4977157;28;20506;-77
2023/10/28 01:12:13;;;;;;;0.10;0.10;;;;;;;;;;4962018;28;20375;-77
2023/10/28 01:15:01;;;;;;;0.20;0.20;;;;;;;;;;4961542;28;20034;-77
2023/10/28 01:17:48;;;;;;;0.10;0.10;;;;;;;;;;4977572;28;20038;-77
2023/10/28 01:20:34;;;;;;;0.17;0.17;;;;;;;;;;4976104;28;20039;-77
2023/10/28 01:23:19;;;;;;;0.10;0.10;;;;;;;;;;4976390;28;20137;-77
2023/10/28 01:26:05;;;;;;;0.20;0.20;;;;;;;;;;4972097;28;20046;-77
2023/10/28 01:28:51;;;;;;;0.10;0.10;;;;;;;;;;4971050;28;20626;-77
2023/10/28 01:31:37;;;;;;;0.10;0.10;;;;;;;;;;4972746;28;20046;-77
2023/10/28 01:34:23;;;;;;;0.10;0.10;;;;;;;;;;4977743;28;20121;-77
2023/10/28 01:37:09;;;;;;;0.10;0.10;;;;;;;;;;4989300;28;20049;-77
2023/10/28 01:39:54;;;;;;;0.10;0.10;;;;;;;;;;4974190;28;20061;-77
2023/10/28 01:42:41;;;;;;;0.10;0.10;;;;;;;;;;4976879;28;20065;-76
2023/10/28 01:45:27;;;;;;;0.20;0.20;;;;;;;;;;4972927;28;20096;-76
2023/10/28 01:48:13;;;;;;;0.20;0.20;;;;;;;;;;4976703;28;20054;-77
2023/10/28 01:50:59;;;;;;;0.10;0.10;;;;;;;;;;4977048;28;21002;-76
2023/10/28 01:53:46;;;;;;;0.10;0.10;;;;;;;;;;4975883;28;20472;-76
2023/10/28 01:56:32;;;;;;;0.20;0.20;;;;;;;;;;4976757;28;20493;-77
2023/10/28 01:59:17;;;;;;;0.10;0.10;;;;;;;;;;4972052;28;20053;-76
2023/10/28 02:02:03;;;;;;;0.10;0.10;;;;;;;;;;4987229;28;20078;-77
2023/10/28 02:04:51;;;;;;;0.20;0.20;;;;;;;;;;4973623;28;20074;-76
2023/10/28 02:07:37;;;;;;;0.10;0.10;;;;;;;;;;4987498;28;20049;-76
2023/10/28 02:10:23;;;;;;;0.10;0.10;;;;;;;;;;4973122;28;20236;-76
2023/10/28 02:13:09;;;;;;;0.20;0.20;;;;;;;;;;4987303;28;20646;-77
2023/10/28 02:15:56;;;;;;;0.13;0.13;;;;;;;;;;4976574;28;20045;-76
2023/10/28 02:18:42;;;;;;;0.20;0.20;;;;;;;;;;4972981;28;20061;-77
2023/10/28 02:21:27;;;;;;;0.10;0.10;;;;;;;;;;4973973;28;20070;-77
2023/10/28 02:24:13;;;;;;;0.10;0.10;;;;;;;;;;4996102;28;20061;-77
2023/10/28 02:26:59;;;;;;;0.15;0.15;;;;;;;;;;4995600;28;20072;-77
2023/10/28 02:29:45;;;;;;;0.10;0.10;;;;;;;;;;4991592;28;20042;-77
2023/10/28 02:32:31;;;;;;;0.10;0.10;;;;;;;;;;4994757;28;20057;-77
2023/10/28 02:35:16;;;;;;;0.20;0.20;;;;;;;;;;4995747;28;20069;-77
2023/10/28 02:38:02;;;;;;;0.20;0.20;;;;;;;;;;4995015;28;20038;-77
2023/10/28 02:40:48;;;;;;;0.13;0.13;;;;;;;;;;4977662;28;20065;-77
2023/10/28 02:43:38;;;;;;;0.20;0.20;;;;;;;;;;4995473;28;20836;-78
2023/10/28 02:46:25;;;;;;;0.10;0.10;;;;;;;;;;5007506;28;20092;-77
2023/10/28 02:49:11;;;;;;;0.15;0.15;;;;;;;;;;4991395;28;20041;-78
2023/10/28 02:51:57;;;;;;;0.10;0.10;;;;;;;;;;4994841;28;20038;-77
2023/10/28 02:54:44;;;;;;;0.10;0.10;;;;;;;;;;4976776;28;20034;-77
2023/10/28 02:57:30;;;;;;;0.17;0.17;;;;;;;;;;4995081;28;20030;-78
2023/10/28 03:00:16;;;;;;;0.10;0.10;;;;;;;;;;4977931;28;20449;-77
2023/10/28 03:03:02;;;;;;;0.13;0.13;;;;;;;;;;4995541;28;20036;-78
2023/10/28 03:05:49;;;;;;;0.10;0.10;;;;;;;;;;5005603;28;20042;-78
2023/10/28 03:08:35;;;;;;;0.10;0.10;;;;;;;;;;4994013;28;20038;-78
2023/10/28 03:11:20;;;;;;;0.10;0.10;;;;;;;;;;4995406;28;20044;-78
2023/10/28 03:14:06;;;;;;;0.10;0.10;;;;;;;;;;4994254;28;20615;-77
2023/10/28 03:16:52;;;;;;;0.10;0.10;;;;;;;;;;5008347;28;20551;-78
2023/10/28 03:19:38;;;;;;;0.10;0.10;;;;;;;;;;4991770;28;20038;-78
2023/10/28 03:22:24;;;;;;;0.10;0.10;;;;;;;;;;4996012;28;20057;-77
2023/10/28 03:25:09;;;;;;;0.10;0.10;;;;;;;;;;4990858;28;20095;-78
2023/10/28 03:28:00;;;;;;;0.10;0.10;;;;;;;;;;4993761;28;20030;-77
2023/10/28 03:30:45;;;;;;;0.10;0.10;;;;;;;;;;4980267;28;20091;-78
2023/10/28 03:33:31;;;;;;;0.10;0.10;;;;;;;;;;4992765;28;20037;-79
2023/10/28 03:36:17;;;;;;;0.20;0.20;;;;;;;;;;4993763;28;20037;-77
2023/10/28 03:39:03;;;;;;;0.10;0.10;;;;;;;;;;4991862;28;20737;-78
2023/10/28 03:41:49;;;;;;;0.20;0.20;;;;;;;;;;4994886;28;20156;-77
2023/10/28 03:44:35;;;;;;;0.10;0.10;;;;;;;;;;4991782;28;20042;-78
2023/10/28 03:47:21;;;;;;;0.10;0.10;;;;;;;;;;4992887;28;20117;-78
2023/10/28 03:50:07;;;;;;;0.10;0.10;;;;;;;;;;4995197;28;20033;-77
2023/10/28 03:52:53;;;;;;;0.10;0.10;;;;;;;;;;4997023;28;20494;-78
2023/10/28 03:55:39;;;;;;;0.10;0.10;;;;;;;;;;4997090;28;20144;-78
2023/10/28 03:58:25;;;;;;;0.10;0.10;;;;;;;;;;4998677;28;20040;-77
2023/10/28 04:01:10;;;;;;;0.10;0.10;;;;;;;;;;4997705;28;20144;-77
2023/10/28 04:03:56;;;;;;;0.10;0.10;;;;;;;;;;4997886;28;20436;-77
2023/10/28 04:06:42;;;;;;;0.15;0.15;;;;;;;;;;4998687;28;20033;-77
2023/10/28 04:09:27;;;;;;;0.20;0.20;;;;;;;;;;4998345;28;20099;-77
2023/10/28 04:12:15;;;;;;;0.10;0.10;;;;;;;;;;4998032;28;20065;-77
2023/10/28 04:15:01;;;;;;;0.10;0.10;;;;;;;;;;4998619;28;20044;-77
2023/10/28 04:17:46;;;;;;;0.10;0.10;;;;;;;;;;4999578;28;20503;-77
2023/10/28 04:20:33;;;;;;;0.10;0.10;;;;;;;;;;4995876;28;20038;-77
2023/10/28 04:23:19;;;;;;;0.10;0.10;;;;;;;;;;4998421;28;20416;-78
2023/10/28 04:26:06;;;;;;;0.10;0.10;;;;;;;;;;4998548;28;20038;-77
2023/10/28 04:28:52;;;;;;;0.10;0.10;;;;;;;;;;4998141;28;20037;-78
2023/10/28 04:31:38;;;;;;;0.10;0.10;;;;;;;;;;4997826;28;20048;-78
2023/10/28 04:34:23;;;;;;;0.10;0.10;;;;;;;;;;4996118;28;20038;-78
2023/10/28 04:37:10;;;;;;;0.10;0.10;;;;;;;;;;4996300;28;20037;-79
2023/10/28 04:39:56;;;;;;;0.10;0.10;;;;;;;;;;4998533;28;20026;-76
2023/10/28 04:42:41;;;;;;;0.10;0.10;;;;;;;;;;4998357;28;20055;-76
2023/10/28 04:45:27;;;;;;;0.20;0.20;;;;;;;;;;4999053;28;20129;-76
2023/10/28 04:48:15;;;;;;;0.10;0.10;;;;;;;;;;4998133;28;20176;-76
2023/10/28 04:51:02;;;;;;;0.10;0.10;;;;;;;;;;4999610;28;20770;-76
2023/10/28 04:53:48;;;;;;;0.10;0.10;;;;;;;;;;4996686;28;20081;-76
2023/10/28 04:56:34;;;;;;;0.10;0.10;;;;;;;;;;4998537;28;20056;-76
2023/10/28 04:59:19;;;;;;;0.10;0.10;;;;;;;;;;4997858;28;20210;-76
2023/10/28 05:02:05;;;;;;;0.10;0.10;;;;;;;;;;4997721;28;20080;-77
2023/10/28 05:04:51;;;;;;;0.20;0.20;;;;;;;;;;4998038;28;21165;-77
2023/10/28 05:07:36;;;;;;;0.10;0.10;;;;;;;;;;4998475;28;20034;-77
2023/10/28 05:10:22;;;;;;;0.10;0.10;;;;;;;;;;4996967;28;20038;-77
2023/10/28 05:13:10;;;;;;;0.10;0.10;;;;;;;;;;4997730;28;20537;-77
2023/10/28 05:15:55;;;;;;;0.10;0.10;;;;;;;;;;4997389;28;20036;-77
2023/10/28 05:18:41;;;;;;;0.10;0.10;;;;;;;;;;4996696;28;20057;-77
2023/10/28 05:21:27;;;;;;;0.10;0.10;;;;;;;;;;4998096;28;20751;-76
2023/10/28 05:24:12;;;;;;;0.10;0.10;;;;;;;;;;4996902;28;20034;-77
2023/10/28 05:26:58;;;;;;;0.10;0.10;;;;;;;;;;4995716;28;20026;-76
2023/10/28 05:29:44;;;;;;;0.10;0.10;;;;;;;;;;4996571;28;20048;-76
2023/10/28 05:32:30;;;;;;;0.10;0.10;;;;;;;;;;4997993;28;20041;-76
2023/10/28 05:35:15;;;;;;;0.10;0.10;;;;;;;;;;4998162;28;20026;-76
2023/10/28 05:38:01;;;;;;;0.20;0.20;;;;;;;;;;4998202;28;20044;-77
2023/10/28 05:40:47;;;;;;;0.10;0.10;;;;;;;;;;4995885;28;20176;-77
2023/10/28 05:43:33;;;;;;;0.10;0.10;;;;;;;;;;4983369;28;20026;-77
2023/10/28 05:46:22;;;;;;;0.10;0.10;;;;;;;;;;4997403;28;20038;-77
2023/10/28 05:49:10;;;;;;;0.15;0.15;;;;;;;;;;4996561;28;20033;-77
2023/10/28 05:51:55;;;;;;;0.20;0.20;;;;;;;;;;4995631;28;20037;-77
2023/10/28 05:54:41;;;;;;;0.10;0.10;;;;;;;;;;4996762;28;20034;-78
2023/10/28 05:57:27;;;;;;;0.17;0.17;;;;;;;;;;4997816;28;20117;-77
2023/10/28 06:00:15;;;;;;;0.10;0.10;;;;;;;;;;4995995;28;20507;-77
2023/10/28 06:03:01;;;;;;;0.20;0.20;;;;;;;;;;4997587;28;20528;-78
2023/10/28 06:05:47;;;;;;;0.10;0.10;;;;;;;;;;4995060;28;20045;-77
2023/10/28 06:08:32;;;;;;;0.10;0.10;;;;;;;;;;4995874;28;20069;-77
2023/10/28 06:11:18;;;;;;;0.10;0.10;;;;;;;;;;4997091;28;20597;-77
2023/10/28 06:14:04;;;;;;;0.10;0.10;;;;;;;;;;4994076;28;20030;-76
2023/10/28 06:16:49;;;;;;;0.10;0.10;;;;;;;;;;4995534;28;20411;-76
2023/10/28 06:19:35;;;;;;;0.20;0.20;;;;;;;;;;4994733;28;20116;-76
2023/10/28 06:22:21;;;;;;;0.10;0.10;;;;;;;;;;4993696;28;20057;-77
2023/10/28 06:25:07;;;;;;;0.10;0.10;;;;;;;;;;4995145;28;20477;-77
2023/10/28 06:27:53;;;;;;;0.10;0.10;;;;;;;;;;4996617;28;20030;-76
2023/10/28 06:30:46;;;;;;;0.10;0.10;;;;;;;;;;4993326;28;20053;-76
2023/10/28 06:33:32;;;;;;;0.20;0.20;;;;;;;;;;4996115;28;20026;-77
2023/10/28 06:36:18;;;;;;;0.10;0.10;;;;;;;;;;4996074;28;20029;-76
2023/10/28 06:39:04;;;;;;;0.20;0.20;;;;;;;;;;4995999;28;20287;-77
2023/10/28 06:41:51;;;;;;;0.10;0.10;;;;;;;;;;4992986;28;20053;-76
2023/10/28 06:44:43;;;;;;;0.10;0.10;;;;;;;;;;4980039;28;20042;-76
2023/10/28 06:47:29;;;;;;;0.10;0.10;;;;;;;;;;4979954;28;20084;-75
2023/10/28 06:50:19;;;;;;;0.10;0.10;;;;;;;;;;4995629;28;20065;-76
2023/10/28 06:53:05;;;;;;;0.10;0.10;;;;;;;;;;4996396;28;20042;-76
2023/10/28 06:55:50;;;;;;;0.10;0.10;;;;;;;;;;4994825;28;21100;-76
2023/10/28 06:58:36;;;;;;;0.10;0.10;;;;;;;;;;4993886;28;20681;-76
2023/10/28 07:01:22;;;;;;;0.10;0.10;;;;;;;;;;4979542;28;20049;-77
2023/10/28 07:04:07;;;;;;;0.10;0.10;;;;;;;;;;4994676;28;20030;-76
2023/10/28 07:06:53;;;;;;;0.10;0.10;;;;;;;;;;4995514;28;20699;-77
2023/10/28 07:09:39;;;;;;;0.15;0.15;;;;;;;;;;4995692;28;20107;-77
2023/10/28 07:12:24;;;;;;;0.10;0.10;;;;;;;;;;4995280;28;20049;-76
2023/10/28 07:15:13;;;;;;;0.10;0.10;;;;;;;;;;4994256;28;20030;-77
2023/10/28 07:17:59;;;;;;;0.20;0.20;;;;;;;;;;4996731;28;20061;-77
2023/10/28 07:20:44;;;;;;;0.20;0.20;;;;;;;;;;4992816;28;20776;-76
2023/10/28 07:23:31;;;;;;;0.10;0.10;;;;;;;;;;4977909;28;20856;-76
2023/10/28 07:26:16;;;;;;;0.10;0.10;;;;;;;;;;4975269;28;20041;-76
2023/10/28 07:29:03;;;;;;;0.10;0.10;;;;;;;;;;4976591;28;20033;-76
2023/10/28 07:31:49;;;;;;;0.10;0.10;;;;;;;;;;4976509;28;20784;-76
2023/10/28 07:34:35;;;;;;;0.20;0.20;;;;;;;;;;4975401;28;20722;-77
2023/10/28 07:37:20;;;;;;;0.10;0.10;;;;;;;;;;4975364;28;20940;-76
2023/10/28 07:40:06;;;;;;;0.10;0.10;;;;;;;;;;4959284;28;20038;-77
2023/10/28 07:42:52;;;;;;;0.10;0.10;;;;;;;;;;4976048;28;20125;-77
2023/10/28 07:45:42;;;;;;;0.10;0.10;;;;;;;;;;4975156;28;20736;-76
2023/10/28 07:48:28;;;;;;;0.17;0.17;;;;;;;;;;4959833;28;20037;-76
2023/10/28 07:51:17;;;;;;;0.10;0.10;;;;;;;;;;4976277;28;20034;-76
2023/10/28 07:54:03;;;;;;;0.20;0.20;;;;;;;;;;4943075;28;20862;-76
2023/10/28 07:56:51;;;;;;;0.20;0.20;;;;;;;;;;4975215;28;20082;-77
2023/10/28 07:59:36;;;;;;;0.10;0.10;;;;;;;;;;4973919;28;20034;-77
2023/10/28 08:02:22;;;;;;;0.10;0.10;;;;;;;;;;4976828;28;20453;-76
2023/10/28 08:05:10;;;;;;;0.10;0.10;;;;;;;;;;4977355;28;20026;-76
2023/10/28 08:07:56;;;;;;;0.10;0.10;;;;;;;;;;4976470;28;20055;-77
2023/10/28 08:10:41;;;;;;;0.20;0.20;;;;;;;;;;4975788;28;20723;-77
2023/10/28 08:13:27;;;;;;;0.10;0.10;;;;;;;;;;4977225;28;20109;-76
2023/10/28 08:16:16;;;;;;;0.20;0.20;;;;;;;;;;4975112;28;20090;-77
2023/10/28 08:19:03;;;;;;;0.10;0.10;;;;;;;;;;4974623;28;20037;-76
2023/10/28 08:21:49;;;;;;;0.20;0.20;;;;;;;;;;4975193;28;20058;-76
2023/10/28 08:24:35;;;;;;;0.10;0.10;;;;;;;;;;4974908;28;20050;-77
2023/10/28 08:27:20;;;;;;;0.10;0.10;;;;;;;;;;4976941;28;20504;-78
2023/10/28 08:30:07;;;;;;;0.13;0.13;;;;;;;;;;4974662;28;20393;-78
2023/10/28 08:32:55;;;;;;;0.20;0.20;;;;;;;;;;4975714;28;20034;-77
2023/10/28 08:35:41;;;;;;;0.10;0.10;;;;;;;;;;4976239;28;20042;-78
2023/10/28 08:38:27;;;;;;;0.20;0.20;;;;;;;;;;4947951;28;20034;-79
2023/10/28 08:41:16;;;;;;;0.10;0.10;;;;;;;;;;4972394;28;20065;-78
2023/10/28 08:44:06;;;;;;;0.10;0.10;;;;;;;;;;4978939;28;20034;-78
2023/10/28 08:46:51;;;;;;;0.10;0.10;;;;;;;;;;4836922;28;20034;-78
2023/10/28 08:49:39;;;;;;;0.28;0.28;;;;;;;;;;4733594;28;20502;-77
2023/10/28 08:52:26;;;;;;;0.10;0.10;;;;;;;;;;4830691;28;20177;-78
2023/10/28 08:55:12;;;;;;;0.10;0.10;;;;;;;;;;4823040;28;20046;-77
2023/10/28 08:57:58;;;;;;;0.10;0.10;;;;;;;;;;4827880;28;20972;-77
2023/10/28 09:00:44;;;;;;;0.17;0.17;;;;;;;;;;4841502;28;20377;-77
2023/10/28 09:03:30;;;;;;;0.10;0.10;;;;;;;;;;4845159;28;20050;-77
2023/10/28 09:06:16;;;;;;;0.10;0.10;;;;;;;;;;4824427;28;20034;-77
2023/10/28 09:09:06;;;;;;;0.10;0.10;;;;;;;;;;4837250;28;20038;-77
2023/10/28 09:11:59;;;;;;;0.10;0.10;;;;;;;;;;4225142;28;10001345;-77
2023/10/28 09:14:47;;;;;;;0.10;0.10;;;;;;;;;;4840707;28;20258;-77
2023/10/28 09:17:33;;;;;;;0.10;0.10;;;;;;;;;;4817581;28;20713;-77
2023/10/28 09:20:21;;;;;;;0.10;0.10;;;;;;;;;;4829615;28;20125;-78
2023/10/28 09:23:07;;;;;;;0.10;0.10;;;;;;;;;;4856410;28;20257;-77
2023/10/28 09:25:53;;;;;;;0.10;0.10;;;;;;;;;;4853540;28;20038;-77
2023/10/28 09:28:43;;;;;;;0.10;0.10;;;;;;;;;;4857670;28;20062;-77
2023/10/28 09:31:33;;;;;;;0.20;0.20;;;;;;;;;;4841696;28;20127;-77
2023/10/28 09:34:19;;;;;;;0.20;0.20;;;;;;;;;;4830251;28;20868;-78
2023/10/28 09:37:06;;;;;;;0.17;0.17;;;;;;;;;;4809304;28;20783;-78
2023/10/28 09:39:51;;;;;;;0.10;0.10;;;;;;;;;;4822681;28;20253;-78
2023/10/28 09:42:38;;;;;;;0.13;0.13;;;;;;;;;;4832995;28;20487;-78
2023/10/28 09:45:23;;;;;;;0.20;0.20;;;;;;;;;;4845314;28;20033;-78
2023/10/28 09:48:15;;;;;;;0.10;0.10;;;;;;;;;;4909364;28;20041;-77
2023/10/28 09:51:00;;;;;;;0.10;0.10;;;;;;;;;;4995307;28;20761;-77
2023/10/28 09:53:49;;;;;;;0.20;0.20;;;;;;;;;;4994100;28;20038;-78
2023/10/28 09:56:37;;;;;;;0.20;0.20;;;;;;;;;;4986395;28;20049;-77
2023/10/28 09:59:24;;;;;;;0.20;0.20;;;;;;;;;;4991041;28;20030;-78
2023/10/28 10:02:30;;;;;;;0.13;0.13;;;;;;;;;;4982452;28;20054;-78
2023/10/28 10:05:19;;;;;;;0.10;0.10;;;;;;;;;;4990445;28;20065;-78
2023/10/28 10:08:15;;;;;;;0.10;0.10;;;;;;;;;;4995614;28;20397;-79
2023/10/28 10:11:01;;;;;;;0.10;0.10;;;;;;;;;;4994829;28;20049;-79
2023/10/28 10:13:46;;;;;;;0.10;0.10;;;;;;;;;;4994984;28;20029;-80
2023/10/28 10:16:32;;;;;;;0.20;0.20;;;;;;;;;;4996846;28;20060;-78
2023/10/28 10:19:30;;;;;;;0.10;0.10;;;;;;;;;;4990763;28;20084;-79
2023/10/28 10:22:26;;;;;;;0.10;0.10;;;;;;;;;;4987293;28;20053;-79
2023/10/28 10:25:12;;;;;;;0.13;0.13;;;;;;;;;;4972569;28;20041;-76
2023/10/28 10:28:12;;;;;;;0.10;0.10;;;;;;;;;;4992066;28;20026;-76
2023/10/28 10:31:07;;;;;;;0.20;0.20;;;;;;;;;;4994410;28;20050;-77
2023/10/28 10:34:02;;;;;;;0.10;0.10;;;;;;;;;;4989428;28;20088;-76
2023/10/28 10:36:48;;;;;;;0.20;0.20;;;;;;;;;;4992759;28;20030;-77
2023/10/28 10:39:43;;;;;;;0.10;0.10;;;;;;;;;;4972608;28;20044;-77
2023/10/28 10:42:30;;;;;;;0.10;0.10;;;;;;;;;;4968181;28;20088;-78
2023/10/28 10:45:18;;;;;;;0.10;0.10;;;;;;;;;;4968827;28;20948;-78
2023/10/28 10:48:06;;;;;;;0.20;0.20;;;;;;;;;;4969439;28;20026;-77
2023/10/28 10:50:51;;;;;;;0.10;0.10;;;;;;;;;;4968658;28;20041;-78
2023/10/28 10:53:43;;;;;;;0.10;0.10;;;;;;;;;;4965575;28;20034;-77
2023/10/28 10:56:29;;;;;;;0.20;0.20;;;;;;;;;;4967984;28;20041;-77
2023/10/28 10:59:15;;;;;;;0.20;0.20;;;;;;;;;;4963377;28;20092;-78
2023/10/28 11:02:01;;;;;;;0.10;0.10;;;;;;;;;;4951986;28;20030;-78
2023/10/28 11:04:47;;;;;;;0.10;0.10;;;;;;;;;;4963707;28;20259;-77
2023/10/28 11:07:34;;;;;;;0.10;0.10;;;;;;;;;;4968524;28;20113;-78
2023/10/28 11:10:19;;;;;;;0.10;0.10;;;;;;;;;;4969271;28;20790;-78
2023/10/28 11:13:05;;;;;;;0.17;0.17;;;;;;;;;;4966813;28;20115;-78
2023/10/28 11:15:51;;;;;;;0.10;0.10;;;;;;;;;;4965504;28;20066;-78
2023/10/28 11:18:39;;;;;;;0.10;0.10;;;;;;;;;;4965883;28;20558;-78
2023/10/28 11:21:26;;;;;;;0.10;0.10;;;;;;;;;;4953046;28;20847;-78
2023/10/28 11:24:14;;;;;;;0.10;0.10;;;;;;;;;;4964576;28;20033;-78
2023/10/28 11:27:00;;;;;;;0.20;0.20;;;;;;;;;;4964138;28;20569;-78
2023/10/28 11:29:46;;;;;;;0.10;0.10;;;;;;;;;;4965089;28;20026;-78
2023/10/28 11:32:37;;;;;;;0.20;0.20;;;;;;;;;;4967569;28;20040;-78
2023/10/28 11:35:24;;;;;;;0.20;0.20;;;;;;;;;;4964874;28;21025;-79
2023/10/28 11:38:10;;;;;;;0.10;0.10;;;;;;;;;;4968117;28;20075;-79
2023/10/28 11:41:06;;;;;;;0.10;0.10;;;;;;;;;;4964639;28;20274;-79
2023/10/28 11:43:52;;;;;;;0.20;0.20;;;;;;;;;;4965908;28;20048;-79
2023/10/28 11:46:38;;;;;;;0.20;0.20;;;;;;;;;;4967552;28;20538;-77
2023/10/28 11:49:24;;;;;;;0.10;0.10;;;;;;;;;;4965186;28;20033;-78
2023/10/28 11:52:12;;;;;;;0.10;0.10;;;;;;;;;;4967618;28;20045;-78
2023/10/28 11:54:59;;;;;;;0.20;0.20;;;;;;;;;;4946093;28;20040;-78
2023/10/28 11:57:45;;;;;;;0.20;0.20;;;;;;;;;;4966047;28;20034;-78
2023/10/28 12:00:31;;;;;;;0.10;0.10;;;;;;;;;;4961924;28;20073;-78
2023/10/28 12:03:19;;;;;;;0.20;0.20;;;;;;;;;;4965437;28;20038;-78
2023/10/28 12:06:05;;;;;;;0.20;0.20;;;;;;;;;;4964287;28;20103;-78
2023/10/28 12:08:51;;;;;;;0.20;0.20;;;;;;;;;;4965737;28;20399;-77
2023/10/28 12:11:37;;;;;;;0.10;0.10;;;;;;;;;;4969100;28;20047;-77
2023/10/28 12:14:23;;;;;;;0.30;0.30;;;;;;;;;;4970493;28;20563;-78
2023/10/28 12:17:11;;;;;;;0.10;0.10;;;;;;;;;;4967572;28;20038;-78
2023/10/28 12:19:57;;;;;;;0.10;0.10;;;;;;;;;;4963045;28;20104;-78
2023/10/28 12:22:43;;;;;;;0.10;0.10;;;;;;;;;;4959910;28;20049;-78
2023/10/28 12:25:29;;;;;;;0.10;0.10;;;;;;;;;;4964970;28;20034;-79
2023/10/28 12:28:18;;;;;;;0.17;0.17;;;;;;;;;;4953112;28;20038;-77
2023/10/28 12:31:03;;;;;;;0.10;0.10;;;;;;;;;;4967395;28;20125;-78
2023/10/28 12:33:50;;;;;;;0.10;0.10;;;;;;;;;;4978930;28;20100;-77
2023/10/28 12:36:35;;;;;;;0.10;0.10;;;;;;;;;;4994150;28;20073;-80
2023/10/28 12:39:21;;;;;;;0.10;0.10;;;;;;;;;;4995872;28;20087;-79
2023/10/28 12:42:07;;;;;;;0.10;0.10;;;;;;;;;;4997169;28;20121;-78
2023/10/28 12:44:55;;;;;;;0.10;0.10;;;;;;;;;;4996977;28;20041;-78
2023/10/28 12:47:41;;;;;;;0.10;0.10;;;;;;;;;;4997447;28;20489;-77
2023/10/28 12:50:27;;;;;;;0.10;0.10;;;;;;;;;;4996798;28;20039;-78
2023/10/28 12:53:13;;;;;;;0.10;0.10;;;;;;;;;;4998656;28;20069;-78
2023/10/28 12:55:59;;;;;;;0.10;0.10;;;;;;;;;;4993127;28;20747;-78
2023/10/28 12:58:45;;;;;;;0.10;0.10;;;;;;;;;;4977911;28;20033;-78
2023/10/28 13:01:31;;;;;;;0.10;0.10;;;;;;;;;;4994377;28;20057;-78
2023/10/28 13:04:17;;;;;;;0.10;0.10;;;;;;;;;;4995024;28;20523;-77
2023/10/28 13:07:03;;;;;;;0.10;0.10;;;;;;;;;;4996408;28;20478;-78
2023/10/28 13:09:49;;;;;;;0.10;0.10;;;;;;;;;;4995776;28;20092;-78
2023/10/28 13:12:34;;;;;;;0.10;0.10;;;;;;;;;;4997363;28;21015;-78
2023/10/28 13:15:20;;;;;;;0.10;0.10;;;;;;;;;;4995868;28;20583;-78
2023/10/28 13:18:06;;;;;;;0.10;0.10;;;;;;;;;;4995824;28;20105;-78
2023/10/28 13:20:52;;;;;;;0.10;0.10;;;;;;;;;;4991621;28;20041;-78
2023/10/28 13:23:38;;;;;;;0.10;0.10;;;;;;;;;;4964735;28;20184;-78
2023/10/28 13:26:23;;;;;;;0.10;0.10;;;;;;;;;;4976796;28;20050;-78
2023/10/28 13:29:09;;;;;;;0.10;0.10;;;;;;;;;;4962166;28;20094;-78
2023/10/28 13:31:55;;;;;;;0.10;0.10;;;;;;;;;;4977084;28;20141;-78
2023/10/28 13:34:41;;;;;;;0.20;0.20;;;;;;;;;;4973227;28;20035;-78
2023/10/28 13:37:26;;;;;;;0.10;0.10;;;;;;;;;;4978655;28;20031;-77
2023/10/28 13:40:12;;;;;;;0.10;0.10;;;;;;;;;;4974993;28;20030;-78
2023/10/28 13:42:58;;;;;;;0.13;0.13;;;;;;;;;;4977787;28;20080;-77
2023/10/28 13:45:44;;;;;;;0.10;0.10;;;;;;;;;;4976426;28;20022;-77
2023/10/28 13:48:29;;;;;;;0.10;0.10;;;;;;;;;;4980206;28;20038;-77
2023/10/28 13:51:15;;;;;;;0.10;0.10;;;;;;;;;;4981973;28;20054;-77
2023/10/28 13:54:01;;;;;;;0.20;0.20;;;;;;;;;;4975144;28;20031;-77
2023/10/28 13:56:47;;;;;;;0.20;0.20;;;;;;;;;;4974490;28;20034;-78
2023/10/28 13:59:32;;;;;;;0.10;0.10;;;;;;;;;;4974507;28;20023;-77
2023/10/28 14:02:19;;;;;;;0.10;0.10;;;;;;;;;;4976150;28;20046;-77
2023/10/28 14:05:05;;;;;;;0.10;0.10;;;;;;;;;;4976444;28;20408;-78
2023/10/28 14:07:50;;;;;;;0.13;0.13;;;;;;;;;;4977920;28;20109;-78
2023/10/28 14:10:36;;;;;;;0.20;0.20;;;;;;;;;;4976903;28;20572;-77
2023/10/28 14:13:22;;;;;;;0.10;0.10;;;;;;;;;;4977431;28;20045;-77
2023/10/28 14:16:14;;;;;;;0.10;0.10;;;;;;;;;;4978483;28;20022;-77
2023/10/28 14:19:02;;;;;;;0.10;0.10;;;;;;;;;;4972604;28;20529;-77
2023/10/28 14:21:48;;;;;;;0.10;0.10;;;;;;;;;;4957383;28;20058;-77
2023/10/28 14:24:33;;;;;;;0.10;0.10;;;;;;;;;;4990648;28;20045;-77
2023/10/28 14:27:19;;;;;;;0.10;0.10;;;;;;;;;;4994556;28;20120;-77
2023/10/28 14:30:06;;;;;;;0.10;0.10;;;;;;;;;;4995218;28;20061;-77
2023/10/28 14:32:51;;;;;;;0.10;0.10;;;;;;;;;;4995452;28;20489;-77
2023/10/28 14:35:37;;;;;;;0.10;0.10;;;;;;;;;;4996106;28;20042;-77
2023/10/28 14:38:23;;;;;;;0.15;0.15;;;;;;;;;;4996461;28;20626;-78
2023/10/28 14:41:09;;;;;;;0.20;0.20;;;;;;;;;;4993595;28;20034;-78
2023/10/28 14:43:55;;;;;;;0.10;0.10;;;;;;;;;;4992283;28;20029;-77
2023/10/28 14:46:40;;;;;;;0.10;0.10;;;;;;;;;;4996214;28;20138;-78
2023/10/28 14:49:27;;;;;;;0.10;0.10;;;;;;;;;;4994895;28;20683;-77
2023/10/28 14:52:13;;;;;;;0.10;0.10;;;;;;;;;;4997177;28;20037;-78
2023/10/28 14:54:59;;;;;;;0.10;0.10;;;;;;;;;;4990699;28;20045;-77
2023/10/28 14:57:45;;;;;;;0.10;0.10;;;;;;;;;;4993791;28;20737;-77
2023/10/28 15:00:30;;;;;;;0.20;0.20;;;;;;;;;;4975083;28;20061;-78
2023/10/28 15:03:16;;;;;;;0.20;0.20;;;;;;;;;;4986635;28;20810;-78
2023/10/28 15:06:04;;;;;;;0.10;0.10;;;;;;;;;;4945209;28;20335;-77
2023/10/28 15:08:50;;;;;;;0.10;0.10;;;;;;;;;;4986491;28;21072;-78
2023/10/28 15:11:36;;;;;;;0.20;0.20;;;;;;;;;;4994168;28;20133;-78
2023/10/28 15:14:22;;;;;;;0.20;0.20;;;;;;;;;;4992426;28;20060;-77
2023/10/28 15:17:08;;;;;;;0.17;0.17;;;;;;;;;;4979568;28;20034;-78
2023/10/28 15:19:54;;;;;;;0.10;0.10;;;;;;;;;;4993136;28;20080;-78
2023/10/28 15:22:40;;;;;;;0.13;0.13;;;;;;;;;;4993985;28;20843;-76
2023/10/28 15:25:32;;;;;;;0.10;0.10;;;;;;;;;;4996508;28;20491;-77
2023/10/28 15:28:18;;;;;;;0.10;0.10;;;;;;;;;;4994567;28;20037;-77
2023/10/28 15:31:04;;;;;;;0.10;0.10;;;;;;;;;;4993245;28;20045;-77
2023/10/28 15:33:51;;;;;;;0.10;0.10;;;;;;;;;;4996153;28;20044;-78
2023/10/28 15:36:36;;;;;;;0.10;0.10;;;;;;;;;;4995518;28;20033;-77
2023/10/28 15:39:22;;;;;;;0.10;0.10;;;;;;;;;;4995286;28;20133;-78
2023/10/28 15:42:08;;;;;;;0.10;0.10;;;;;;;;;;4996174;28;20624;-77
2023/10/28 15:44:53;;;;;;;0.10;0.10;;;;;;;;;;4984979;28;20639;-77
2023/10/28 15:47:39;;;;;;;0.10;0.10;;;;;;;;;;4994389;28;20045;-77
2023/10/28 15:50:25;;;;;;;0.17;0.17;;;;;;;;;;4991950;28;20050;-78
2023/10/28 15:53:11;;;;;;;0.15;0.15;;;;;;;;;;4996308;28;20492;-77
2023/10/28 15:55:56;;;;;;;0.10;0.10;;;;;;;;;;4992523;28;20030;-77
2023/10/28 15:58:44;;;;;;;0.10;0.10;;;;;;;;;;4992891;28;20101;-77
2023/10/28 16:01:30;;;;;;;0.10;0.10;;;;;;;;;;4984133;28;20038;-78
2023/10/28 16:04:16;;;;;;;0.20;0.20;;;;;;;;;;4995232;28;20041;-77
2023/10/28 16:07:03;;;;;;;0.10;0.10;;;;;;;;;;4976607;28;20068;-77
2023/10/28 16:09:49;;;;;;;0.10;0.10;;;;;;;;;;4990574;28;20033;-77
2023/10/28 16:12:35;;;;;;;0.13;0.13;;;;;;;;;;4995222;28;20118;-77
2023/10/28 16:15:21;;;;;;;0.10;0.10;;;;;;;;;;4991776;28;20121;-77
2023/10/28 16:18:07;;;;;;;0.10;0.10;;;;;;;;;;4994971;28;20030;-77
2023/10/28 16:20:55;;;;;;;0.15;0.15;;;;;;;;;;4994001;28;20568;-77
2023/10/28 16:23:41;;;;;;;0.15;0.15;;;;;;;;;;4992498;28;20100;-78
2023/10/28 16:26:27;;;;;;;0.10;0.10;;;;;;;;;;4994051;28;20674;-78
2023/10/28 16:29:13;;;;;;;0.10;0.10;;;;;;;;;;4992204;28;20030;-78
2023/10/28 16:31:59;;;;;;;0.17;0.17;;;;;;;;;;4994776;28;20049;-78
2023/10/28 16:34:47;;;;;;;0.10;0.10;;;;;;;;;;4994461;28;20524;-78
2023/10/28 16:37:34;;;;;;;0.20;0.20;;;;;;;;;;4994091;28;20034;-79
2023/10/28 16:40:22;;;;;;;0.10;0.10;;;;;;;;;;4991823;28;20034;-79